createdAt,value
2019-03-23T00:02:28.783Z,12.62
2019-03-23T00:05:00.847Z,12.59
2019-03-23T00:07:33.002Z,12.59
2019-03-23T00:10:05.143Z,12.57
2019-03-23T00:12:37.199Z,12.59
2019-03-23T00:15:10.655Z,12.55
2019-03-23T00:17:42.855Z,12.53
2019-03-23T00:20:14.985Z,12.50
2019-03-23T00:22:47.083Z,12.46
2019-03-23T00:25:19.224Z,12.45
2019-03-23T00:27:51.340Z,12.42
2019-03-23T00:30:23.405Z,12.40
2019-03-23T00:32:55.504Z,12.39
2019-03-23T00:35:27.582Z,12.35
2019-03-23T00:38:02.423Z,12.29
2019-03-23T00:40:34.532Z,12.29
2019-03-23T00:43:06.696Z,12.24
2019-03-23T00:45:42.140Z,12.20
2019-03-23T00:48:14.260Z,12.17
2019-03-23T00:50:46.366Z,12.14
2019-03-23T00:53:18.420Z,12.10
2019-03-23T00:55:50.548Z,12.06
2019-03-23T00:58:22.731Z,12.02
2019-03-23T01:00:54.859Z,11.98
2019-03-23T01:03:26.875Z,11.95
2019-03-23T01:05:58.992Z,11.90
2019-03-23T01:08:31.138Z,11.87
2019-03-23T01:11:03.252Z,11.81
2019-03-23T01:13:35.347Z,11.78
2019-03-23T01:16:07.497Z,11.73
2019-03-23T01:18:39.615Z,11.69
2019-03-23T01:21:11.780Z,11.65
2019-03-23T01:23:43.853Z,11.63
2019-03-23T01:26:16.061Z,11.65
2019-03-23T01:28:48.253Z,11.51
2019-03-23T01:31:20.349Z,11.43
2019-03-23T01:33:52.493Z,11.44
2019-03-23T01:36:24.578Z,11.42
2019-03-23T01:38:56.676Z,11.26
2019-03-23T01:41:28.710Z,11.13
2019-03-23T01:44:00.840Z,11.01
2019-03-23T01:46:32.988Z,10.95
2019-03-23T01:49:05.131Z,10.92
2019-03-23T01:51:37.299Z,10.86
2019-03-23T01:54:09.428Z,10.85
2019-03-23T01:56:41.547Z,10.79
2019-03-23T01:59:13.717Z,10.73
2019-03-23T02:01:45.881Z,10.65
2019-03-23T02:04:17.996Z,10.60
2019-03-23T02:06:50.073Z,10.59
2019-03-23T02:09:22.214Z,10.53
2019-03-23T02:11:54.348Z,10.48
2019-03-23T02:14:26.418Z,10.38
2019-03-23T02:16:58.540Z,10.34
2019-03-23T02:19:30.675Z,10.30
2019-03-23T02:22:02.770Z,10.27
2019-03-23T02:24:34.935Z,10.24
2019-03-23T02:27:07.086Z,10.20
2019-03-23T02:29:39.208Z,10.14
2019-03-23T02:32:11.338Z,10.08
2019-03-23T02:34:43.425Z,10.02
2019-03-23T02:37:27.250Z,10.01
2019-03-23T02:39:49.321Z,9.92
2019-03-23T02:42:21.415Z,9.65
2019-03-23T02:44:53.539Z,9.53
2019-03-23T02:47:25.679Z,9.45
2019-03-23T02:49:57.779Z,9.35
2019-03-23T02:52:29.915Z,9.39
2019-03-23T02:55:02.176Z,9.40
2019-03-23T02:57:34.322Z,9.16
2019-03-23T03:00:08.563Z,8.97
2019-03-23T03:02:40.659Z,8.92
2019-03-23T03:05:12.870Z,8.82
2019-03-23T03:07:45.009Z,8.79
2019-03-23T03:10:39.767Z,8.70
2019-03-23T03:13:11.916Z,8.63
2019-03-23T03:15:44.062Z,8.67
2019-03-23T03:18:16.208Z,8.68
2019-03-23T03:20:48.331Z,8.62
2019-03-23T03:23:21.006Z,8.53
2019-03-23T03:25:53.152Z,8.42
2019-03-23T03:28:25.278Z,8.42
2019-03-23T03:30:57.474Z,8.42
2019-03-23T03:33:29.586Z,8.43
2019-03-23T03:36:01.659Z,8.44
2019-03-23T03:38:33.834Z,8.39
2019-03-23T03:41:05.976Z,8.35
2019-03-23T03:43:38.066Z,8.34
2019-03-23T03:46:10.170Z,8.31
2019-03-23T03:48:42.296Z,8.30
2019-03-23T03:51:14.445Z,8.39
2019-03-23T03:53:46.523Z,8.36
2019-03-23T03:56:18.632Z,8.32
2019-03-23T03:58:50.759Z,8.30
2019-03-23T04:01:22.845Z,8.27
2019-03-23T04:03:55.000Z,8.30
2019-03-23T04:06:27.136Z,8.32
2019-03-23T04:08:59.237Z,8.32
2019-03-23T04:11:31.410Z,8.37
2019-03-23T04:14:03.532Z,8.35
2019-03-23T04:16:35.680Z,8.36
2019-03-23T04:19:07.772Z,8.30
2019-03-23T04:21:39.872Z,8.26
2019-03-23T04:24:11.987Z,8.21
2019-03-23T04:26:44.184Z,8.25
2019-03-23T04:29:16.249Z,8.25
2019-03-23T04:31:48.337Z,8.19
2019-03-23T04:34:20.453Z,8.14
2019-03-23T04:36:52.570Z,8.13
2019-03-23T04:39:24.607Z,8.14
2019-03-23T04:41:56.716Z,8.18
2019-03-23T04:44:28.857Z,8.26
2019-03-23T04:47:00.974Z,8.24
2019-03-23T04:49:33.118Z,8.27
2019-03-23T04:52:05.243Z,8.22
2019-03-23T04:54:38.964Z,8.23
2019-03-23T04:57:11.254Z,8.23
2019-03-23T04:59:43.379Z,8.24
2019-03-23T05:02:17.836Z,8.23
2019-03-23T05:04:49.971Z,8.23
2019-03-23T05:07:22.127Z,8.24
2019-03-23T05:09:54.297Z,8.22
2019-03-23T05:12:26.507Z,8.23
2019-03-23T05:14:58.653Z,8.14
2019-03-23T05:17:30.856Z,8.13
2019-03-23T05:20:02.939Z,8.17
2019-03-23T05:22:35.042Z,8.21
2019-03-23T05:25:09.169Z,8.16
2019-03-23T05:27:41.316Z,8.17
2019-03-23T05:30:13.492Z,8.18
2019-03-23T05:32:45.547Z,8.18
2019-03-23T05:35:17.649Z,8.21
2019-03-23T05:37:49.690Z,8.23
2019-03-23T05:40:21.727Z,8.22
2019-03-23T05:42:53.886Z,8.28
2019-03-23T05:45:25.896Z,8.17
2019-03-23T05:47:58.006Z,8.19
2019-03-23T05:50:30.203Z,8.18
2019-03-23T05:53:02.407Z,8.14
2019-03-23T05:55:34.547Z,8.20
2019-03-23T05:58:06.656Z,8.16
2019-03-23T06:00:38.781Z,8.23
2019-03-23T06:03:10.885Z,8.27
2019-03-23T06:05:42.949Z,8.29
2019-03-23T06:08:15.079Z,8.30
2019-03-23T06:10:47.251Z,8.37
2019-03-23T06:13:19.391Z,8.39
2019-03-23T06:15:51.491Z,8.43
2019-03-23T06:18:23.642Z,8.46
2019-03-23T06:20:55.754Z,8.50
2019-03-23T06:23:27.851Z,8.55
2019-03-23T06:25:59.993Z,8.59
2019-03-23T06:28:32.104Z,8.63
2019-03-23T06:31:04.238Z,8.62
2019-03-23T06:33:38.774Z,8.64
2019-03-23T06:36:10.926Z,8.68
2019-03-23T06:38:43.042Z,8.72
2019-03-23T06:41:15.189Z,8.71
2019-03-23T06:43:47.321Z,8.72
2019-03-23T06:46:19.418Z,8.68
2019-03-23T06:48:51.587Z,8.70
2019-03-23T06:51:23.744Z,8.71
2019-03-23T06:53:55.885Z,8.72
2019-03-23T06:56:28.033Z,8.78
2019-03-23T06:59:00.216Z,8.85
2019-03-23T07:01:32.384Z,8.84
2019-03-23T07:04:04.618Z,8.91
2019-03-23T07:06:36.763Z,8.89
2019-03-23T07:09:16.211Z,8.97
2019-03-23T07:11:43.458Z,8.91
2019-03-23T07:14:17.159Z,8.90
2019-03-23T07:16:52.051Z,8.95
2019-03-23T07:19:24.254Z,8.91
2019-03-23T07:21:56.414Z,8.87
2019-03-23T07:24:28.607Z,8.92
2019-03-23T07:27:01.066Z,8.94
2019-03-23T07:29:33.237Z,8.98
2019-03-23T07:32:06.250Z,9.03
2019-03-23T07:34:40.774Z,9.07
2019-03-23T07:37:12.829Z,9.17
2019-03-23T07:39:45.115Z,9.19
2019-03-23T07:42:17.321Z,9.26
2019-03-23T07:44:49.471Z,9.19
2019-03-23T07:47:21.619Z,9.22
2019-03-23T07:49:53.743Z,9.25
2019-03-23T07:52:25.861Z,9.25
2019-03-23T07:55:00.453Z,9.31
2019-03-23T07:57:32.541Z,9.23
2019-03-23T08:00:05.115Z,9.32
2019-03-23T08:02:37.270Z,9.37
2019-03-23T08:05:10.246Z,9.44
2019-03-23T08:07:42.368Z,9.51
2019-03-23T08:10:30.500Z,9.53
2019-03-23T08:13:03.127Z,9.62
2019-03-23T08:15:35.235Z,9.68
2019-03-23T08:18:07.424Z,9.73
2019-03-23T08:20:39.488Z,9.80
2019-03-23T08:23:11.652Z,9.87
2019-03-23T08:25:43.746Z,9.90
2019-03-23T08:28:15.927Z,9.96
2019-03-23T08:30:48.095Z,10.07
2019-03-23T08:33:20.215Z,10.11
2019-03-23T08:35:52.363Z,10.10
2019-03-23T08:38:24.507Z,10.15
2019-03-23T08:40:56.631Z,10.22
2019-03-23T08:43:28.774Z,10.23
2019-03-23T08:46:00.922Z,10.27
2019-03-23T08:48:33.070Z,10.33
2019-03-23T08:51:05.221Z,10.38
2019-03-23T08:53:37.283Z,10.42
2019-03-23T08:56:12.277Z,10.44
2019-03-23T08:58:41.120Z,10.47
2019-03-23T09:01:13.224Z,10.48
2019-03-23T09:03:52.476Z,10.54
2019-03-23T09:06:19.213Z,10.54
2019-03-23T09:08:51.410Z,10.52
2019-03-23T09:11:23.570Z,10.57
2019-03-23T09:13:55.622Z,10.58
2019-03-23T09:16:27.792Z,10.62
2019-03-23T09:18:59.904Z,10.59
2019-03-23T09:21:31.963Z,10.62
2019-03-23T09:24:04.023Z,10.59
2019-03-23T09:26:36.147Z,10.66
2019-03-23T09:29:08.254Z,10.71
2019-03-23T09:31:40.382Z,10.77
2019-03-23T09:34:12.557Z,10.83
2019-03-23T09:36:44.703Z,10.83
2019-03-23T09:39:16.829Z,10.85
2019-03-23T09:41:49.081Z,10.88
2019-03-23T09:44:21.226Z,10.83
2019-03-23T09:46:53.385Z,10.85
2019-03-23T09:49:25.546Z,10.83
2019-03-23T09:51:57.689Z,10.91
2019-03-23T09:54:29.779Z,10.86
2019-03-23T09:57:01.918Z,10.80
2019-03-23T09:59:34.075Z,10.75
2019-03-23T10:02:06.257Z,10.79
2019-03-23T10:04:38.380Z,10.84
2019-03-23T10:07:10.507Z,10.79
2019-03-23T10:09:42.640Z,10.80
2019-03-23T10:12:14.712Z,10.80
2019-03-23T10:14:46.828Z,10.78
2019-03-23T10:17:18.953Z,10.85
2019-03-23T10:19:51.130Z,10.82
2019-03-23T10:22:23.288Z,10.81
2019-03-23T10:24:55.424Z,10.92
2019-03-23T10:27:27.665Z,10.95
2019-03-23T10:29:59.883Z,11.03
2019-03-23T10:32:32.016Z,11.14
2019-03-23T10:35:04.365Z,11.28
2019-03-23T10:37:36.510Z,11.45
2019-03-23T10:40:09.050Z,11.61
2019-03-23T10:42:43.244Z,11.80
2019-03-23T10:45:15.183Z,11.94
2019-03-23T10:47:47.404Z,12.02
2019-03-23T10:50:19.588Z,12.03
2019-03-23T10:52:51.646Z,12.20
2019-03-23T10:55:23.735Z,12.22
2019-03-23T10:57:55.947Z,12.29
2019-03-23T11:00:28.072Z,12.37
2019-03-23T11:03:00.264Z,12.40
2019-03-23T11:05:32.356Z,12.56
2019-03-23T11:08:04.510Z,12.73
2019-03-23T11:10:41.774Z,12.88
2019-03-23T11:13:10.513Z,13.06
2019-03-23T11:15:42.731Z,13.06
2019-03-23T11:18:14.903Z,13.15
2019-03-23T11:20:47.060Z,13.26
2019-03-23T11:23:19.273Z,13.45
2019-03-23T11:25:51.318Z,13.56
2019-03-23T11:28:23.503Z,13.65
2019-03-23T11:30:55.665Z,13.79
2019-03-23T11:33:27.759Z,13.95
2019-03-23T11:35:59.893Z,14.27
2019-03-23T11:38:32.025Z,14.44
2019-03-23T11:41:04.361Z,14.82
2019-03-23T11:43:36.489Z,15.21
2019-03-23T11:46:08.600Z,15.53
2019-03-23T11:48:40.744Z,15.81
2019-03-23T11:51:12.871Z,16.05
2019-03-23T11:53:44.998Z,16.18
2019-03-23T11:56:17.271Z,16.24
2019-03-23T11:58:49.448Z,16.64
2019-03-23T12:01:21.597Z,16.97
2019-03-23T12:03:53.720Z,17.22
2019-03-23T12:06:26.083Z,17.37
2019-03-23T12:08:58.253Z,17.50
2019-03-23T12:11:30.462Z,17.84
2019-03-23T12:14:02.630Z,17.95
2019-03-23T12:16:34.689Z,17.97
2019-03-23T12:19:06.851Z,18.09
2019-03-23T12:21:38.953Z,18.11
2019-03-23T12:24:11.037Z,17.71
2019-03-23T12:26:43.144Z,17.38
2019-03-23T12:29:15.267Z,17.07
2019-03-23T12:31:47.410Z,16.77
2019-03-23T12:34:19.577Z,16.46
2019-03-23T12:36:51.670Z,16.33
2019-03-23T12:39:23.731Z,16.33
2019-03-23T12:41:55.898Z,16.39
2019-03-23T12:44:28.004Z,16.53
2019-03-23T12:47:00.132Z,16.64
2019-03-23T12:49:32.281Z,16.74
2019-03-23T12:52:04.427Z,16.73
2019-03-23T12:54:36.577Z,16.69
2019-03-23T12:57:08.715Z,16.54
2019-03-23T12:59:40.736Z,16.38
2019-03-23T13:02:12.831Z,16.29
2019-03-23T13:04:44.881Z,16.23
2019-03-23T13:07:17.000Z,16.14
2019-03-23T13:09:49.070Z,16.27
2019-03-23T13:12:21.164Z,16.28
2019-03-23T13:14:53.437Z,16.26
2019-03-23T13:17:25.569Z,16.36
2019-03-23T13:19:57.689Z,16.44
2019-03-23T13:22:29.851Z,16.44
2019-03-23T13:25:01.912Z,16.41
2019-03-23T13:27:33.975Z,16.42
2019-03-23T13:30:07.426Z,16.40
2019-03-23T13:32:39.580Z,16.38
2019-03-23T13:35:11.703Z,16.34
2019-03-23T13:37:43.907Z,16.34
2019-03-23T13:40:16.198Z,16.33
2019-03-23T13:42:48.379Z,16.21
2019-03-23T13:45:20.484Z,16.13
2019-03-23T13:47:54.794Z,16.12
2019-03-23T13:50:30.103Z,16.12
2019-03-23T13:53:02.266Z,16.11
2019-03-23T13:55:36.167Z,16.07
2019-03-23T13:58:12.823Z,16.05
2019-03-23T14:00:45.019Z,15.97
2019-03-23T14:03:17.134Z,16.03
2019-03-23T14:05:49.239Z,16.05
2019-03-23T14:08:21.385Z,16.00
2019-03-23T14:10:53.531Z,15.86
2019-03-23T14:13:27.739Z,15.87
2019-03-23T14:15:59.767Z,15.82
2019-03-23T14:18:31.899Z,15.73
2019-03-23T14:21:04.115Z,15.56
2019-03-23T14:23:36.222Z,15.43
2019-03-23T14:26:08.272Z,15.44
2019-03-23T14:28:40.487Z,15.31
2019-03-23T14:31:12.697Z,15.13
2019-03-23T14:33:44.825Z,15.01
2019-03-23T14:36:16.958Z,14.86
2019-03-23T14:38:49.081Z,14.75
2019-03-23T14:41:21.105Z,14.69
2019-03-23T14:43:53.223Z,14.65
2019-03-23T14:46:25.354Z,14.61
2019-03-23T14:49:01.807Z,14.60
2019-03-23T14:51:31.317Z,14.61
2019-03-23T14:54:03.509Z,14.61
2019-03-23T14:56:35.704Z,14.57
2019-03-23T14:59:07.861Z,14.47
2019-03-23T15:01:39.904Z,14.42
2019-03-23T15:04:12.021Z,14.40
2019-03-23T15:06:44.137Z,14.34
2019-03-23T15:09:16.316Z,14.34
2019-03-23T15:11:48.438Z,14.28
2019-03-23T15:14:20.484Z,14.32
2019-03-23T15:16:52.632Z,14.31
2019-03-23T15:19:25.097Z,14.34
2019-03-23T15:21:57.294Z,14.28
2019-03-23T15:24:29.460Z,14.30
2019-03-23T15:27:01.531Z,14.28
2019-03-23T15:29:33.718Z,14.28
2019-03-23T15:32:05.842Z,14.25
2019-03-23T15:34:37.970Z,14.18
2019-03-23T15:37:10.107Z,14.15
2019-03-23T15:39:42.314Z,14.12
2019-03-23T15:42:24.259Z,14.03
2019-03-23T15:44:48.237Z,14.02
2019-03-23T15:47:20.398Z,13.91
2019-03-23T15:49:52.486Z,13.90
2019-03-23T15:52:24.565Z,13.88
2019-03-23T15:54:56.617Z,13.86
2019-03-23T15:57:28.706Z,13.81
2019-03-23T16:00:00.728Z,13.80
2019-03-23T16:02:32.854Z,13.73
2019-03-23T16:05:05.673Z,13.76
2019-03-23T16:07:37.841Z,13.65
2019-03-23T16:10:10.383Z,13.63
2019-03-23T16:12:42.532Z,13.60
2019-03-23T16:15:15.290Z,13.59
2019-03-23T16:17:47.428Z,13.52
2019-03-23T16:20:19.619Z,13.46
2019-03-23T16:22:51.764Z,13.42
2019-03-23T16:25:23.914Z,13.36
2019-03-23T16:27:56.136Z,13.33
2019-03-23T16:30:34.894Z,13.34
2019-03-23T16:33:07.046Z,13.29
2019-03-23T16:35:39.236Z,13.21
2019-03-23T16:38:11.337Z,13.15
2019-03-23T16:40:43.487Z,13.07
2019-03-23T16:43:15.691Z,13.05
2019-03-23T16:45:47.801Z,13.05
2019-03-23T16:48:19.960Z,13.11
2019-03-23T16:50:52.085Z,12.98
2019-03-23T16:53:24.221Z,12.96
2019-03-23T16:55:57.454Z,12.87
2019-03-23T16:58:29.550Z,12.85
2019-03-23T17:01:01.545Z,12.82
2019-03-23T17:03:33.692Z,12.77
2019-03-23T17:06:05.829Z,12.75
2019-03-23T17:08:38.002Z,12.71
2019-03-23T17:11:10.071Z,12.68
2019-03-23T17:13:42.185Z,12.72
2019-03-23T17:16:14.278Z,12.68
2019-03-23T17:18:46.428Z,12.67
2019-03-23T17:21:18.557Z,12.68
2019-03-23T17:23:50.670Z,12.68
2019-03-23T17:26:22.783Z,12.67
2019-03-23T17:28:54.939Z,12.65
2019-03-23T17:31:27.067Z,12.58
2019-03-23T17:33:59.225Z,12.56
2019-03-23T17:36:31.272Z,12.58
2019-03-23T17:39:05.022Z,12.59
2019-03-23T17:41:37.122Z,12.56
2019-03-23T17:44:09.254Z,12.56
2019-03-23T17:46:41.395Z,12.56
2019-03-23T17:49:13.526Z,12.51
2019-03-23T17:51:45.671Z,12.54
2019-03-23T17:54:17.811Z,12.53
2019-03-23T17:56:49.992Z,12.51
2019-03-23T17:59:22.146Z,12.45
2019-03-23T18:01:54.337Z,12.41
2019-03-23T18:04:26.357Z,12.39
2019-03-23T18:06:58.509Z,12.48
2019-03-23T18:09:30.639Z,12.45
2019-03-23T18:12:02.784Z,12.35
2019-03-23T18:14:34.907Z,12.23
2019-03-23T18:17:07.060Z,12.16
2019-03-23T18:19:39.254Z,12.13
2019-03-23T18:22:11.405Z,12.06
2019-03-23T18:24:43.545Z,12.10
2019-03-23T18:27:15.748Z,12.07
2019-03-23T18:29:47.903Z,12.09
2019-03-23T18:32:20.126Z,12.03
2019-03-23T18:34:52.231Z,12.06
2019-03-23T18:37:24.391Z,12.02
2019-03-23T18:39:56.528Z,11.99
2019-03-23T18:42:28.632Z,11.96
2019-03-23T18:45:00.788Z,11.87
2019-03-23T18:47:32.892Z,11.86
2019-03-23T18:50:05.316Z,11.83
2019-03-23T18:52:37.436Z,11.87
2019-03-23T18:55:09.813Z,11.90
2019-03-23T18:57:41.955Z,11.72
2019-03-23T19:00:18.229Z,11.68
2019-03-23T19:02:50.369Z,11.71
2019-03-23T19:05:22.503Z,11.65
2019-03-23T19:07:54.673Z,11.62
2019-03-23T19:10:26.821Z,11.50
2019-03-23T19:12:58.967Z,11.58
2019-03-23T19:15:31.298Z,11.46
2019-03-23T19:18:03.400Z,11.39
2019-03-23T19:20:35.494Z,11.33
2019-03-23T19:23:08.034Z,11.29
2019-03-23T19:25:40.105Z,11.40
2019-03-23T19:28:12.172Z,11.45
2019-03-23T19:30:44.237Z,11.43
2019-03-23T19:33:16.303Z,11.32
2019-03-23T19:35:48.315Z,11.29
2019-03-23T19:38:20.371Z,11.29
2019-03-23T19:40:52.428Z,11.34
2019-03-23T19:43:24.407Z,11.31
2019-03-23T19:45:56.571Z,11.30
2019-03-23T19:48:28.772Z,11.28
2019-03-23T19:51:00.902Z,11.27
2019-03-23T19:53:33.101Z,11.31
2019-03-23T19:56:05.271Z,11.21
2019-03-23T19:58:37.457Z,11.19
2019-03-23T20:01:09.600Z,11.20
2019-03-23T20:03:41.751Z,11.24
2019-03-23T20:06:13.926Z,11.16
2019-03-23T20:08:46.038Z,11.11
2019-03-23T20:11:18.286Z,11.19
2019-03-23T20:13:58.455Z,11.16
2019-03-23T20:16:24.258Z,11.12
2019-03-23T20:18:56.385Z,11.21
2019-03-23T20:21:28.509Z,11.18
2019-03-23T20:24:00.652Z,11.11
2019-03-23T20:26:32.920Z,11.10
2019-03-23T20:29:05.031Z,11.17
2019-03-23T20:31:37.182Z,11.13
2019-03-23T20:34:09.348Z,11.03
2019-03-23T20:36:41.531Z,10.91
2019-03-23T20:39:13.825Z,10.92
2019-03-23T20:41:45.955Z,10.87
2019-03-23T20:44:18.081Z,10.93
2019-03-23T20:46:50.343Z,10.95
2019-03-23T20:49:23.263Z,10.91
2019-03-23T20:51:55.821Z,10.92
2019-03-23T20:54:27.953Z,10.86
2019-03-23T20:57:00.197Z,10.82
2019-03-23T20:59:32.298Z,10.87
2019-03-23T21:02:04.471Z,10.90
2019-03-23T21:04:36.695Z,10.78
2019-03-23T21:07:08.910Z,10.78
2019-03-23T21:09:41.077Z,10.72
2019-03-23T21:12:13.187Z,10.70
2019-03-23T21:14:45.399Z,10.77
2019-03-23T21:17:35.278Z,10.79
2019-03-23T21:20:18.350Z,10.70
2019-03-23T21:23:09.392Z,10.65
2019-03-23T21:25:53.630Z,10.62
2019-03-23T21:28:36.535Z,10.69
2019-03-23T21:31:20.163Z,10.71
2019-03-23T21:34:11.121Z,10.69
2019-03-23T21:37:02.003Z,10.70
2019-03-23T21:39:45.559Z,10.69
2019-03-23T21:42:36.517Z,10.59
2019-03-23T21:45:19.588Z,10.53
2019-03-23T21:48:10.531Z,10.56
2019-03-23T21:50:53.370Z,10.61
2019-03-23T21:53:44.313Z,10.57
2019-03-23T21:56:27.448Z,10.54
2019-03-23T21:59:18.385Z,10.49
2019-03-23T22:02:01.462Z,10.55
2019-03-23T22:04:52.448Z,10.57
2019-03-23T22:07:35.378Z,10.52
2019-03-23T22:10:26.366Z,10.53
2019-03-23T22:13:17.265Z,10.40
2019-03-23T22:16:00.661Z,10.44
2019-03-23T22:18:51.547Z,10.46
2019-03-23T22:21:34.396Z,10.46
2019-03-23T22:24:25.319Z,10.38
2019-03-23T22:27:08.980Z,10.38
2019-03-23T22:29:59.902Z,10.42
2019-03-23T22:32:42.730Z,10.43
2019-03-23T22:35:33.630Z,10.32
2019-03-23T22:38:17.281Z,10.34
2019-03-23T22:41:08.215Z,10.36
2019-03-23T22:43:51.672Z,10.32
2019-03-23T22:46:42.590Z,10.30
2019-03-23T22:49:25.471Z,10.28
2019-03-23T22:52:16.385Z,10.31
2019-03-23T22:54:59.570Z,10.27
2019-03-23T22:57:50.478Z,10.23
2019-03-23T23:00:52.331Z,10.22
2019-03-23T23:03:43.355Z,10.11
2019-03-23T23:06:27.108Z,10.14
2019-03-23T23:09:18.060Z,10.04
2019-03-23T23:12:01.507Z,10.10
2019-03-23T23:14:53.714Z,9.96
2019-03-23T23:17:57.120Z,9.94
2019-03-23T23:20:48.054Z,9.88
2019-03-23T23:23:30.854Z,9.92
2019-03-23T23:26:21.814Z,9.90
2019-03-23T23:29:05.028Z,9.84
2019-03-23T23:31:55.992Z,9.84
2019-03-23T23:34:46.917Z,9.84
2019-03-23T23:37:29.817Z,9.72
2019-03-23T23:40:20.715Z,9.74
2019-03-23T23:43:04.249Z,9.73
2019-03-23T23:45:55.177Z,9.71
2019-03-23T23:48:38.182Z,9.82
2019-03-23T23:51:29.087Z,9.76
2019-03-23T23:54:12.401Z,9.63
2019-03-23T23:57:03.329Z,9.58
2019-03-23T23:59:46.999Z,9.51
